sensor_id;sensor_type;location;lat;lon;timestamp;P1;durP1;ratioP1;P2;durP2;ratioP2
18649;SDS011;9454;53.516;10.478;2022-11-25T00:01:59;7.00;;;3.28;;
18649;SDS011;9454;53.516;10.478;2022-11-25T00:05:03;7.03;;;3.17;;
18649;SDS011;9454;53.516;10.478;2022-11-25T00:08:05;6.25;;;3.30;;
18649;SDS011;9454;53.516;10.478;2022-11-25T00:11:10;6.60;;;3.13;;
18649;SDS011;9454;53.516;10.478;2022-11-25T00:14:14;8.40;;;4.00;;
18649;SDS011;9454;53.516;10.478;2022-11-25T00:17:17;5.55;;;3.10;;
18649;SDS011;9454;53.516;10.478;2022-11-25T00:20:20;5.70;;;3.28;;
18649;SDS011;9454;53.516;10.478;2022-11-25T00:23:24;6.78;;;3.78;;
18649;SDS011;9454;53.516;10.478;2022-11-25T00:26:33;7.18;;;3.50;;
18649;SDS011;9454;53.516;10.478;2022-11-25T00:29:39;7.93;;;3.67;;
18649;SDS011;9454;53.516;10.478;2022-11-25T00:32:41;10.23;;;3.70;;
18649;SDS011;9454;53.516;10.478;2022-11-25T00:35:44;9.80;;;3.63;;
18649;SDS011;9454;53.516;10.478;2022-11-25T00:38:47;7.45;;;4.00;;
18649;SDS011;9454;53.516;10.478;2022-11-25T00:41:49;5.07;;;3.05;;
18649;SDS011;9454;53.516;10.478;2022-11-25T00:45:10;5.25;;;3.08;;
18649;SDS011;9454;53.516;10.478;2022-11-25T00:48:13;8.77;;;3.83;;
18649;SDS011;9454;53.516;10.478;2022-11-25T00:51:15;6.13;;;3.28;;
18649;SDS011;9454;53.516;10.478;2022-11-25T00:54:18;5.88;;;3.00;;
18649;SDS011;9454;53.516;10.478;2022-11-25T00:57:22;9.32;;;3.58;;
18649;SDS011;9454;53.516;10.478;2022-11-25T01:00:26;7.82;;;4.13;;
18649;SDS011;9454;53.516;10.478;2022-11-25T01:03:29;8.98;;;4.55;;
18649;SDS011;9454;53.516;10.478;2022-11-25T01:06:32;8.75;;;3.97;;
18649;SDS011;9454;53.516;10.478;2022-11-25T01:09:35;7.97;;;4.10;;
18649;SDS011;9454;53.516;10.478;2022-11-25T01:12:37;9.32;;;3.35;;
18649;SDS011;9454;53.516;10.478;2022-11-25T01:15:41;7.07;;;3.45;;
18649;SDS011;9454;53.516;10.478;2022-11-25T01:18:44;6.22;;;3.60;;
18649;SDS011;9454;53.516;10.478;2022-11-25T01:21:47;6.70;;;3.70;;
18649;SDS011;9454;53.516;10.478;2022-11-25T01:24:49;8.32;;;3.53;;
18649;SDS011;9454;53.516;10.478;2022-11-25T01:27:53;9.30;;;4.35;;
18649;SDS011;9454;53.516;10.478;2022-11-25T01:31:01;20.13;;;4.10;;
18649;SDS011;9454;53.516;10.478;2022-11-25T01:34:05;7.40;;;3.92;;
18649;SDS011;9454;53.516;10.478;2022-11-25T01:37:08;9.68;;;3.28;;
18649;SDS011;9454;53.516;10.478;2022-11-25T01:40:12;5.57;;;2.95;;
18649;SDS011;9454;53.516;10.478;2022-11-25T01:43:15;6.57;;;3.88;;
18649;SDS011;9454;53.516;10.478;2022-11-25T01:46:20;8.23;;;3.95;;
18649;SDS011;9454;53.516;10.478;2022-11-25T01:49:27;5.40;;;3.60;;
18649;SDS011;9454;53.516;10.478;2022-11-25T01:52:31;8.50;;;3.85;;
18649;SDS011;9454;53.516;10.478;2022-11-25T01:55:35;9.73;;;3.70;;
18649;SDS011;9454;53.516;10.478;2022-11-25T01:58:39;9.93;;;4.25;;
18649;SDS011;9454;53.516;10.478;2022-11-25T02:01:44;10.32;;;4.28;;
18649;SDS011;9454;53.516;10.478;2022-11-25T02:04:46;7.93;;;4.25;;
18649;SDS011;9454;53.516;10.478;2022-11-25T02:07:50;18.48;;;4.55;;
18649;SDS011;9454;53.516;10.478;2022-11-25T02:10:54;10.38;;;4.45;;
18649;SDS011;9454;53.516;10.478;2022-11-25T02:13:57;8.23;;;3.78;;
18649;SDS011;9454;53.516;10.478;2022-11-25T02:17:02;8.43;;;4.03;;
18649;SDS011;9454;53.516;10.478;2022-11-25T02:20:09;8.75;;;4.75;;
18649;SDS011;9454;53.516;10.478;2022-11-25T02:23:15;6.90;;;3.65;;
18649;SDS011;9454;53.516;10.478;2022-11-25T02:26:21;7.45;;;3.80;;
18649;SDS011;9454;53.516;10.478;2022-11-25T02:29:23;7.10;;;3.80;;
18649;SDS011;9454;53.516;10.478;2022-11-25T02:32:26;9.82;;;4.53;;
18649;SDS011;9454;53.516;10.478;2022-11-25T02:35:30;8.23;;;4.55;;
18649;SDS011;9454;53.516;10.478;2022-11-25T02:38:35;8.18;;;4.03;;
18649;SDS011;9454;53.516;10.478;2022-11-25T02:41:42;10.75;;;4.57;;
18649;SDS011;9454;53.516;10.478;2022-11-25T02:44:46;8.77;;;4.55;;
18649;SDS011;9454;53.516;10.478;2022-11-25T02:47:49;10.93;;;4.50;;
18649;SDS011;9454;53.516;10.478;2022-11-25T02:50:51;11.27;;;4.80;;
18649;SDS011;9454;53.516;10.478;2022-11-25T02:53:54;7.78;;;4.35;;
18649;SDS011;9454;53.516;10.478;2022-11-25T02:57:00;12.25;;;4.75;;
18649;SDS011;9454;53.516;10.478;2022-11-25T03:00:07;13.05;;;5.03;;
18649;SDS011;9454;53.516;10.478;2022-11-25T03:03:11;16.58;;;5.90;;
18649;SDS011;9454;53.516;10.478;2022-11-25T03:06:13;8.65;;;4.80;;
18649;SDS011;9454;53.516;10.478;2022-11-25T03:09:16;9.10;;;4.93;;
18649;SDS011;9454;53.516;10.478;2022-11-25T03:12:20;14.10;;;5.47;;
18649;SDS011;9454;53.516;10.478;2022-11-25T03:15:26;8.82;;;4.68;;
18649;SDS011;9454;53.516;10.478;2022-11-25T03:18:29;10.32;;;4.43;;
18649;SDS011;9454;53.516;10.478;2022-11-25T03:21:32;9.70;;;5.00;;
18649;SDS011;9454;53.516;10.478;2022-11-25T03:24:35;8.90;;;4.18;;
18649;SDS011;9454;53.516;10.478;2022-11-25T03:27:40;11.23;;;5.88;;
18649;SDS011;9454;53.516;10.478;2022-11-25T03:30:42;11.32;;;4.75;;
18649;SDS011;9454;53.516;10.478;2022-11-25T03:33:46;9.68;;;4.20;;
18649;SDS011;9454;53.516;10.478;2022-11-25T03:36:49;7.50;;;4.28;;
18649;SDS011;9454;53.516;10.478;2022-11-25T03:39:52;7.93;;;4.20;;
18649;SDS011;9454;53.516;10.478;2022-11-25T03:42:56;7.72;;;4.32;;
18649;SDS011;9454;53.516;10.478;2022-11-25T03:45:58;6.68;;;3.88;;
18649;SDS011;9454;53.516;10.478;2022-11-25T03:49:01;7.50;;;4.07;;
18649;SDS011;9454;53.516;10.478;2022-11-25T03:52:04;7.70;;;3.92;;
18649;SDS011;9454;53.516;10.478;2022-11-25T03:55:07;9.35;;;4.38;;
18649;SDS011;9454;53.516;10.478;2022-11-25T03:58:12;9.30;;;4.32;;
18649;SDS011;9454;53.516;10.478;2022-11-25T04:01:15;6.05;;;4.00;;
18649;SDS011;9454;53.516;10.478;2022-11-25T04:04:19;8.25;;;3.20;;
18649;SDS011;9454;53.516;10.478;2022-11-25T04:07:22;6.85;;;3.47;;
18649;SDS011;9454;53.516;10.478;2022-11-25T04:10:25;5.72;;;3.83;;
18649;SDS011;9454;53.516;10.478;2022-11-25T04:13:30;6.25;;;3.70;;
18649;SDS011;9454;53.516;10.478;2022-11-25T04:16:32;7.38;;;3.67;;
18649;SDS011;9454;53.516;10.478;2022-11-25T04:19:35;5.50;;;3.22;;
18649;SDS011;9454;53.516;10.478;2022-11-25T04:22:38;6.40;;;3.83;;
18649;SDS011;9454;53.516;10.478;2022-11-25T04:25:41;5.18;;;2.88;;
18649;SDS011;9454;53.516;10.478;2022-11-25T04:28:53;6.25;;;3.55;;
18649;SDS011;9454;53.516;10.478;2022-11-25T04:31:56;5.97;;;3.35;;
18649;SDS011;9454;53.516;10.478;2022-11-25T04:34:59;6.43;;;3.45;;
18649;SDS011;9454;53.516;10.478;2022-11-25T04:38:03;4.05;;;3.17;;
18649;SDS011;9454;53.516;10.478;2022-11-25T04:41:08;6.80;;;3.58;;
18649;SDS011;9454;53.516;10.478;2022-11-25T04:44:17;7.60;;;3.83;;
18649;SDS011;9454;53.516;10.478;2022-11-25T04:47:20;7.30;;;4.05;;
18649;SDS011;9454;53.516;10.478;2022-11-25T04:50:23;5.53;;;3.00;;
18649;SDS011;9454;53.516;10.478;2022-11-25T04:53:46;5.63;;;3.47;;
18649;SDS011;9454;53.516;10.478;2022-11-25T04:56:49;4.25;;;2.58;;
18649;SDS011;9454;53.516;10.478;2022-11-25T04:59:54;6.47;;;3.58;;
18649;SDS011;9454;53.516;10.478;2022-11-25T05:02:57;4.70;;;3.00;;
18649;SDS011;9454;53.516;10.478;2022-11-25T05:06:04;4.05;;;2.72;;
18649;SDS011;9454;53.516;10.478;2022-11-25T05:09:08;4.10;;;2.95;;
18649;SDS011;9454;53.516;10.478;2022-11-25T05:12:15;5.15;;;2.88;;
18649;SDS011;9454;53.516;10.478;2022-11-25T05:15:19;4.55;;;2.80;;
18649;SDS011;9454;53.516;10.478;2022-11-25T05:18:22;3.80;;;2.17;;
18649;SDS011;9454;53.516;10.478;2022-11-25T05:21:25;4.45;;;2.78;;
18649;SDS011;9454;53.516;10.478;2022-11-25T05:24:28;4.75;;;3.17;;
18649;SDS011;9454;53.516;10.478;2022-11-25T05:27:31;3.40;;;2.53;;
18649;SDS011;9454;53.516;10.478;2022-11-25T05:30:39;4.07;;;2.47;;
18649;SDS011;9454;53.516;10.478;2022-11-25T05:33:43;3.47;;;2.65;;
18649;SDS011;9454;53.516;10.478;2022-11-25T05:36:45;4.63;;;2.72;;
18649;SDS011;9454;53.516;10.478;2022-11-25T05:39:48;4.57;;;2.22;;
18649;SDS011;9454;53.516;10.478;2022-11-25T05:42:53;3.95;;;2.70;;
18649;SDS011;9454;53.516;10.478;2022-11-25T05:45:57;4.32;;;2.40;;
18649;SDS011;9454;53.516;10.478;2022-11-25T05:49:00;6.57;;;3.30;;
18649;SDS011;9454;53.516;10.478;2022-11-25T05:52:03;4.55;;;2.83;;
18649;SDS011;9454;53.516;10.478;2022-11-25T05:55:12;5.40;;;2.92;;
18649;SDS011;9454;53.516;10.478;2022-11-25T05:58:19;4.15;;;2.47;;
18649;SDS011;9454;53.516;10.478;2022-11-25T06:01:27;3.83;;;2.75;;
18649;SDS011;9454;53.516;10.478;2022-11-25T06:04:30;2.42;;;2.10;;
18649;SDS011;9454;53.516;10.478;2022-11-25T06:07:32;4.72;;;2.78;;
18649;SDS011;9454;53.516;10.478;2022-11-25T06:10:37;4.18;;;2.83;;
18649;SDS011;9454;53.516;10.478;2022-11-25T06:13:40;5.22;;;3.17;;
18649;SDS011;9454;53.516;10.478;2022-11-25T06:16:44;6.45;;;2.58;;
18649;SDS011;9454;53.516;10.478;2022-11-25T06:20:10;4.47;;;2.83;;
18649;SDS011;9454;53.516;10.478;2022-11-25T06:23:13;4.15;;;2.80;;
18649;SDS011;9454;53.516;10.478;2022-11-25T06:26:16;3.72;;;2.50;;
18649;SDS011;9454;53.516;10.478;2022-11-25T06:29:20;3.53;;;2.58;;
18649;SDS011;9454;53.516;10.478;2022-11-25T06:32:25;3.60;;;2.30;;
18649;SDS011;9454;53.516;10.478;2022-11-25T06:35:32;3.92;;;2.20;;
18649;SDS011;9454;53.516;10.478;2022-11-25T06:38:36;5.20;;;2.28;;
18649;SDS011;9454;53.516;10.478;2022-11-25T06:41:38;2.80;;;2.30;;
18649;SDS011;9454;53.516;10.478;2022-11-25T06:44:41;4.53;;;2.28;;
18649;SDS011;9454;53.516;10.478;2022-11-25T06:47:45;5.00;;;2.65;;
18649;SDS011;9454;53.516;10.478;2022-11-25T06:50:54;4.00;;;2.58;;
18649;SDS011;9454;53.516;10.478;2022-11-25T06:53:56;4.03;;;2.20;;
18649;SDS011;9454;53.516;10.478;2022-11-25T06:56:59;5.38;;;2.70;;
18649;SDS011;9454;53.516;10.478;2022-11-25T07:00:02;3.90;;;2.55;;
18649;SDS011;9454;53.516;10.478;2022-11-25T07:03:08;4.45;;;2.40;;
18649;SDS011;9454;53.516;10.478;2022-11-25T07:06:15;3.33;;;2.33;;
18649;SDS011;9454;53.516;10.478;2022-11-25T07:09:18;5.38;;;3.13;;
18649;SDS011;9454;53.516;10.478;2022-11-25T07:12:22;5.22;;;3.20;;
18649;SDS011;9454;53.516;10.478;2022-11-25T07:15:25;4.43;;;2.65;;
18649;SDS011;9454;53.516;10.478;2022-11-25T07:18:30;6.57;;;3.42;;
18649;SDS011;9454;53.516;10.478;2022-11-25T07:21:33;6.75;;;3.25;;
18649;SDS011;9454;53.516;10.478;2022-11-25T07:24:36;4.63;;;2.65;;
18649;SDS011;9454;53.516;10.478;2022-11-25T07:27:39;9.77;;;3.10;;
18649;SDS011;9454;53.516;10.478;2022-11-25T07:30:52;6.60;;;3.17;;
18649;SDS011;9454;53.516;10.478;2022-11-25T07:34:33;4.97;;;2.78;;
18649;SDS011;9454;53.516;10.478;2022-11-25T07:37:36;7.03;;;3.15;;
18649;SDS011;9454;53.516;10.478;2022-11-25T07:40:39;7.70;;;3.53;;
18649;SDS011;9454;53.516;10.478;2022-11-25T07:43:43;5.70;;;3.08;;
18649;SDS011;9454;53.516;10.478;2022-11-25T07:46:53;6.63;;;3.20;;
18649;SDS011;9454;53.516;10.478;2022-11-25T07:49:57;7.07;;;3.30;;
18649;SDS011;9454;53.516;10.478;2022-11-25T07:53:00;7.43;;;3.30;;
18649;SDS011;9454;53.516;10.478;2022-11-25T07:56:03;6.93;;;3.33;;
18649;SDS011;9454;53.516;10.478;2022-11-25T07:59:09;10.55;;;4.07;;
18649;SDS011;9454;53.516;10.478;2022-11-25T08:02:12;6.30;;;3.25;;
18649;SDS011;9454;53.516;10.478;2022-11-25T08:05:16;7.65;;;3.50;;
18649;SDS011;9454;53.516;10.478;2022-11-25T08:08:19;8.23;;;3.92;;
18649;SDS011;9454;53.516;10.478;2022-11-25T08:11:23;6.47;;;3.15;;
18649;SDS011;9454;53.516;10.478;2022-11-25T08:14:26;7.72;;;3.70;;
18649;SDS011;9454;53.516;10.478;2022-11-25T08:17:30;6.63;;;3.60;;
18649;SDS011;9454;53.516;10.478;2022-11-25T08:20:36;5.82;;;2.97;;
18649;SDS011;9454;53.516;10.478;2022-11-25T08:23:40;6.57;;;3.55;;
18649;SDS011;9454;53.516;10.478;2022-11-25T08:26:48;8.52;;;3.35;;
18649;SDS011;9454;53.516;10.478;2022-11-25T08:29:55;5.97;;;3.38;;
18649;SDS011;9454;53.516;10.478;2022-11-25T08:32:59;8.98;;;3.45;;
18649;SDS011;9454;53.516;10.478;2022-11-25T08:36:10;8.52;;;3.50;;
18649;SDS011;9454;53.516;10.478;2022-11-25T08:39:16;6.97;;;3.65;;
18649;SDS011;9454;53.516;10.478;2022-11-25T08:42:47;9.65;;;3.78;;
18649;SDS011;9454;53.516;10.478;2022-11-25T08:45:52;8.00;;;4.22;;
18649;SDS011;9454;53.516;10.478;2022-11-25T08:49:08;6.35;;;3.45;;
18649;SDS011;9454;53.516;10.478;2022-11-25T08:52:13;7.57;;;3.85;;
18649;SDS011;9454;53.516;10.478;2022-11-25T08:55:19;10.43;;;3.28;;
18649;SDS011;9454;53.516;10.478;2022-11-25T08:58:26;9.00;;;3.53;;
18649;SDS011;9454;53.516;10.478;2022-11-25T09:01:29;8.60;;;3.72;;
18649;SDS011;9454;53.516;10.478;2022-11-25T09:04:32;8.43;;;3.45;;
18649;SDS011;9454;53.516;10.478;2022-11-25T09:07:42;7.53;;;4.00;;
18649;SDS011;9454;53.516;10.478;2022-11-25T09:10:50;7.57;;;3.38;;
18649;SDS011;9454;53.516;10.478;2022-11-25T09:13:54;6.18;;;3.60;;
18649;SDS011;9454;53.516;10.478;2022-11-25T09:16:57;5.97;;;3.33;;
18649;SDS011;9454;53.516;10.478;2022-11-25T09:20:04;8.25;;;3.25;;
18649;SDS011;9454;53.516;10.478;2022-11-25T09:26:47;11.77;;;3.50;;
18649;SDS011;9454;53.516;10.478;2022-11-25T09:29:50;9.63;;;3.30;;
18649;SDS011;9454;53.516;10.478;2022-11-25T09:32:53;6.35;;;3.08;;
18649;SDS011;9454;53.516;10.478;2022-11-25T09:35:58;6.15;;;3.05;;
18649;SDS011;9454;53.516;10.478;2022-11-25T09:39:01;9.23;;;3.58;;
18649;SDS011;9454;53.516;10.478;2022-11-25T09:42:14;6.38;;;2.85;;
18649;SDS011;9454;53.516;10.478;2022-11-25T09:45:55;8.27;;;3.17;;
18649;SDS011;9454;53.516;10.478;2022-11-25T09:49:38;8.07;;;3.40;;
18649;SDS011;9454;53.516;10.478;2022-11-25T09:52:44;7.43;;;3.25;;
18649;SDS011;9454;53.516;10.478;2022-11-25T09:55:50;5.68;;;3.13;;
18649;SDS011;9454;53.516;10.478;2022-11-25T09:59:04;4.93;;;2.95;;
18649;SDS011;9454;53.516;10.478;2022-11-25T10:02:09;8.70;;;2.65;;
18649;SDS011;9454;53.516;10.478;2022-11-25T10:05:15;6.10;;;2.67;;
18649;SDS011;9454;53.516;10.478;2022-11-25T10:08:20;5.07;;;2.88;;
18649;SDS011;9454;53.516;10.478;2022-11-25T10:11:26;7.70;;;3.47;;
18649;SDS011;9454;53.516;10.478;2022-11-25T10:14:41;7.95;;;2.78;;
18649;SDS011;9454;53.516;10.478;2022-11-25T10:17:46;4.20;;;2.00;;
18649;SDS011;9454;53.516;10.478;2022-11-25T10:20:56;5.82;;;2.72;;
18649;SDS011;9454;53.516;10.478;2022-11-25T10:24:02;5.88;;;3.30;;
18649;SDS011;9454;53.516;10.478;2022-11-25T10:27:09;6.07;;;2.92;;
18649;SDS011;9454;53.516;10.478;2022-11-25T10:30:18;4.68;;;2.97;;
18649;SDS011;9454;53.516;10.478;2022-11-25T10:33:29;8.20;;;2.88;;
18649;SDS011;9454;53.516;10.478;2022-11-25T10:36:44;7.40;;;3.28;;
18649;SDS011;9454;53.516;10.478;2022-11-25T10:40:01;7.55;;;2.45;;
18649;SDS011;9454;53.516;10.478;2022-11-25T10:43:19;11.40;;;3.22;;
18649;SDS011;9454;53.516;10.478;2022-11-25T10:46:35;9.10;;;3.08;;
18649;SDS011;9454;53.516;10.478;2022-11-25T10:50:12;7.35;;;3.03;;
18649;SDS011;9454;53.516;10.478;2022-11-25T10:53:16;7.78;;;3.22;;
18649;SDS011;9454;53.516;10.478;2022-11-25T10:56:20;6.72;;;2.83;;
18649;SDS011;9454;53.516;10.478;2022-11-25T10:59:25;9.70;;;3.03;;
18649;SDS011;9454;53.516;10.478;2022-11-25T11:02:30;5.13;;;2.72;;
18649;SDS011;9454;53.516;10.478;2022-11-25T11:05:42;7.93;;;2.70;;
18649;SDS011;9454;53.516;10.478;2022-11-25T11:08:47;6.68;;;3.33;;
18649;SDS011;9454;53.516;10.478;2022-11-25T11:11:50;8.18;;;3.53;;
18649;SDS011;9454;53.516;10.478;2022-11-25T11:15:13;5.30;;;2.92;;
18649;SDS011;9454;53.516;10.478;2022-11-25T11:18:22;8.50;;;2.30;;
18649;SDS011;9454;53.516;10.478;2022-11-25T11:21:28;8.98;;;3.17;;
18649;SDS011;9454;53.516;10.478;2022-11-25T11:24:32;8.25;;;2.80;;
18649;SDS011;9454;53.516;10.478;2022-11-25T11:27:39;5.68;;;2.33;;
18649;SDS011;9454;53.516;10.478;2022-11-25T11:30:49;5.03;;;2.60;;
18649;SDS011;9454;53.516;10.478;2022-11-25T11:33:59;6.93;;;2.67;;
18649;SDS011;9454;53.516;10.478;2022-11-25T11:37:10;5.82;;;2.58;;
18649;SDS011;9454;53.516;10.478;2022-11-25T11:40:22;7.18;;;2.75;;
18649;SDS011;9454;53.516;10.478;2022-11-25T11:43:32;7.80;;;3.13;;
18649;SDS011;9454;53.516;10.478;2022-11-25T11:46:41;8.88;;;2.55;;
18649;SDS011;9454;53.516;10.478;2022-11-25T11:49:55;5.65;;;2.20;;
18649;SDS011;9454;53.516;10.478;2022-11-25T11:53:05;6.32;;;2.28;;
18649;SDS011;9454;53.516;10.478;2022-11-25T11:56:12;4.65;;;2.40;;
18649;SDS011;9454;53.516;10.478;2022-11-25T11:59:42;7.25;;;2.38;;
18649;SDS011;9454;53.516;10.478;2022-11-25T12:02:52;6.75;;;2.50;;
18649;SDS011;9454;53.516;10.478;2022-11-25T12:05:59;10.95;;;3.20;;
18649;SDS011;9454;53.516;10.478;2022-11-25T12:09:11;7.65;;;3.05;;
18649;SDS011;9454;53.516;10.478;2022-11-25T12:12:15;8.23;;;2.85;;
18649;SDS011;9454;53.516;10.478;2022-11-25T12:15:27;6.90;;;3.20;;
18649;SDS011;9454;53.516;10.478;2022-11-25T12:18:37;5.78;;;3.30;;
18649;SDS011;9454;53.516;10.478;2022-11-25T12:21:45;9.65;;;3.17;;
18649;SDS011;9454;53.516;10.478;2022-11-25T12:24:50;5.05;;;2.60;;
18649;SDS011;9454;53.516;10.478;2022-11-25T12:27:56;4.28;;;2.45;;
18649;SDS011;9454;53.516;10.478;2022-11-25T12:31:01;6.20;;;2.40;;
18649;SDS011;9454;53.516;10.478;2022-11-25T12:34:08;5.63;;;2.85;;
18649;SDS011;9454;53.516;10.478;2022-11-25T12:37:17;6.63;;;2.50;;
18649;SDS011;9454;53.516;10.478;2022-11-25T12:40:25;5.43;;;2.13;;
18649;SDS011;9454;53.516;10.478;2022-11-25T12:43:36;4.95;;;2.20;;
18649;SDS011;9454;53.516;10.478;2022-11-25T12:46:43;6.97;;;3.00;;
18649;SDS011;9454;53.516;10.478;2022-11-25T12:49:48;8.63;;;2.58;;
18649;SDS011;9454;53.516;10.478;2022-11-25T12:52:55;6.60;;;3.05;;
18649;SDS011;9454;53.516;10.478;2022-11-25T12:56:05;7.28;;;2.92;;
18649;SDS011;9454;53.516;10.478;2022-11-25T12:59:19;5.95;;;2.60;;
18649;SDS011;9454;53.516;10.478;2022-11-25T13:02:34;7.07;;;3.05;;
18649;SDS011;9454;53.516;10.478;2022-11-25T13:05:50;7.90;;;3.15;;
18649;SDS011;9454;53.516;10.478;2022-11-25T13:09:08;6.43;;;3.33;;
18649;SDS011;9454;53.516;10.478;2022-11-25T13:12:17;12.93;;;3.35;;
18649;SDS011;9454;53.516;10.478;2022-11-25T13:15:25;7.97;;;3.15;;
18649;SDS011;9454;53.516;10.478;2022-11-25T13:18:30;8.52;;;3.13;;
18649;SDS011;9454;53.516;10.478;2022-11-25T13:21:34;7.50;;;3.00;;
18649;SDS011;9454;53.516;10.478;2022-11-25T13:24:39;6.15;;;2.72;;
18649;SDS011;9454;53.516;10.478;2022-11-25T13:27:55;4.97;;;2.97;;
18649;SDS011;9454;53.516;10.478;2022-11-25T13:31:19;9.07;;;3.40;;
18649;SDS011;9454;53.516;10.478;2022-11-25T13:34:26;9.57;;;3.00;;
18649;SDS011;9454;53.516;10.478;2022-11-25T13:37:36;7.20;;;2.65;;
18649;SDS011;9454;53.516;10.478;2022-11-25T13:40:41;8.98;;;3.05;;
18649;SDS011;9454;53.516;10.478;2022-11-25T13:43:58;11.35;;;3.33;;
18649;SDS011;9454;53.516;10.478;2022-11-25T13:47:22;8.98;;;3.10;;
18649;SDS011;9454;53.516;10.478;2022-11-25T13:50:25;8.90;;;2.83;;
18649;SDS011;9454;53.516;10.478;2022-11-25T13:53:50;11.90;;;3.42;;
18649;SDS011;9454;53.516;10.478;2022-11-25T13:57:00;7.22;;;3.25;;
18649;SDS011;9454;53.516;10.478;2022-11-25T14:03:39;8.80;;;2.75;;
18649;SDS011;9454;53.516;10.478;2022-11-25T14:06:52;10.88;;;3.70;;
18649;SDS011;9454;53.516;10.478;2022-11-25T14:10:08;8.48;;;3.35;;
18649;SDS011;9454;53.516;10.478;2022-11-25T14:13:19;12.50;;;3.70;;
18649;SDS011;9454;53.516;10.478;2022-11-25T14:19:54;7.85;;;3.28;;
18649;SDS011;9454;53.516;10.478;2022-11-25T14:23:14;6.00;;;3.08;;
18649;SDS011;9454;53.516;10.478;2022-11-25T14:26:25;6.80;;;3.65;;
18649;SDS011;9454;53.516;10.478;2022-11-25T14:29:51;6.70;;;2.95;;
18649;SDS011;9454;53.516;10.478;2022-11-25T14:32:54;7.72;;;2.90;;
18649;SDS011;9454;53.516;10.478;2022-11-25T14:35:59;9.38;;;3.63;;
18649;SDS011;9454;53.516;10.478;2022-11-25T14:39:05;7.13;;;3.97;;
18649;SDS011;9454;53.516;10.478;2022-11-25T14:42:12;7.35;;;3.30;;
18649;SDS011;9454;53.516;10.478;2022-11-25T14:45:23;9.32;;;3.63;;
18649;SDS011;9454;53.516;10.478;2022-11-25T14:48:25;12.38;;;4.20;;
18649;SDS011;9454;53.516;10.478;2022-11-25T14:51:32;7.40;;;3.60;;
18649;SDS011;9454;53.516;10.478;2022-11-25T14:54:38;8.10;;;3.58;;
18649;SDS011;9454;53.516;10.478;2022-11-25T14:57:42;8.43;;;3.63;;
18649;SDS011;9454;53.516;10.478;2022-11-25T15:00:50;6.38;;;3.50;;
18649;SDS011;9454;53.516;10.478;2022-11-25T15:03:59;8.60;;;4.10;;
18649;SDS011;9454;53.516;10.478;2022-11-25T15:07:13;11.35;;;3.45;;
18649;SDS011;9454;53.516;10.478;2022-11-25T15:10:35;8.00;;;2.92;;
18649;SDS011;9454;53.516;10.478;2022-11-25T15:13:39;8.07;;;2.95;;
18649;SDS011;9454;53.516;10.478;2022-11-25T15:16:44;7.00;;;3.83;;
18649;SDS011;9454;53.516;10.478;2022-11-25T15:19:47;8.75;;;4.00;;
18649;SDS011;9454;53.516;10.478;2022-11-25T15:22:51;7.88;;;3.72;;
18649;SDS011;9454;53.516;10.478;2022-11-25T15:25:54;6.03;;;3.35;;
18649;SDS011;9454;53.516;10.478;2022-11-25T15:28:59;6.20;;;3.55;;
18649;SDS011;9454;53.516;10.478;2022-11-25T15:32:11;8.88;;;4.22;;
18649;SDS011;9454;53.516;10.478;2022-11-25T15:35:29;7.22;;;3.88;;
18649;SDS011;9454;53.516;10.478;2022-11-25T15:38:52;7.05;;;3.55;;
18649;SDS011;9454;53.516;10.478;2022-11-25T15:42:13;8.02;;;3.92;;
18649;SDS011;9454;53.516;10.478;2022-11-25T15:45:32;7.10;;;3.10;;
18649;SDS011;9454;53.516;10.478;2022-11-25T15:48:38;7.47;;;3.70;;
18649;SDS011;9454;53.516;10.478;2022-11-25T15:51:42;6.03;;;3.40;;
18649;SDS011;9454;53.516;10.478;2022-11-25T15:54:47;10.95;;;3.55;;
18649;SDS011;9454;53.516;10.478;2022-11-25T15:57:50;8.45;;;3.83;;
18649;SDS011;9454;53.516;10.478;2022-11-25T16:00:58;8.07;;;3.90;;
18649;SDS011;9454;53.516;10.478;2022-11-25T16:04:10;7.50;;;3.70;;
18649;SDS011;9454;53.516;10.478;2022-11-25T16:07:19;14.02;;;5.35;;
18649;SDS011;9454;53.516;10.478;2022-11-25T16:10:24;7.55;;;3.95;;
18649;SDS011;9454;53.516;10.478;2022-11-25T16:13:31;10.32;;;4.72;;
18649;SDS011;9454;53.516;10.478;2022-11-25T16:16:35;13.50;;;5.28;;
18649;SDS011;9454;53.516;10.478;2022-11-25T16:19:39;13.52;;;5.05;;
18649;SDS011;9454;53.516;10.478;2022-11-25T16:22:44;8.90;;;4.75;;
18649;SDS011;9454;53.516;10.478;2022-11-25T16:25:47;10.52;;;4.93;;
18649;SDS011;9454;53.516;10.478;2022-11-25T16:28:52;8.52;;;3.95;;
18649;SDS011;9454;53.516;10.478;2022-11-25T16:31:55;7.55;;;3.95;;
18649;SDS011;9454;53.516;10.478;2022-11-25T16:35:10;9.27;;;4.78;;
18649;SDS011;9454;53.516;10.478;2022-11-25T16:38:13;17.88;;;5.00;;
18649;SDS011;9454;53.516;10.478;2022-11-25T16:41:17;9.25;;;4.47;;
18649;SDS011;9454;53.516;10.478;2022-11-25T16:44:21;10.30;;;4.15;;
18649;SDS011;9454;53.516;10.478;2022-11-25T16:47:24;10.23;;;4.03;;
18649;SDS011;9454;53.516;10.478;2022-11-25T16:50:28;10.18;;;4.13;;
18649;SDS011;9454;53.516;10.478;2022-11-25T16:53:44;13.05;;;4.03;;
18649;SDS011;9454;53.516;10.478;2022-11-25T16:56:47;7.90;;;3.85;;
18649;SDS011;9454;53.516;10.478;2022-11-25T16:59:50;6.43;;;3.63;;
18649;SDS011;9454;53.516;10.478;2022-11-25T17:02:59;6.07;;;3.95;;
18649;SDS011;9454;53.516;10.478;2022-11-25T17:06:04;7.68;;;4.15;;
18649;SDS011;9454;53.516;10.478;2022-11-25T17:09:11;11.23;;;5.03;;
18649;SDS011;9454;53.516;10.478;2022-11-25T17:12:14;13.50;;;6.25;;
18649;SDS011;9454;53.516;10.478;2022-11-25T17:15:18;21.70;;;6.88;;
18649;SDS011;9454;53.516;10.478;2022-11-25T17:18:22;19.38;;;7.65;;
18649;SDS011;9454;53.516;10.478;2022-11-25T17:21:27;22.60;;;9.57;;
18649;SDS011;9454;53.516;10.478;2022-11-25T17:24:29;23.13;;;9.25;;
18649;SDS011;9454;53.516;10.478;2022-11-25T17:27:32;18.33;;;7.72;;
18649;SDS011;9454;53.516;10.478;2022-11-25T17:30:35;17.83;;;6.82;;
18649;SDS011;9454;53.516;10.478;2022-11-25T17:33:39;11.82;;;5.93;;
18649;SDS011;9454;53.516;10.478;2022-11-25T17:36:47;13.68;;;6.28;;
18649;SDS011;9454;53.516;10.478;2022-11-25T17:39:52;11.77;;;6.18;;
18649;SDS011;9454;53.516;10.478;2022-11-25T17:42:55;12.68;;;5.32;;
18649;SDS011;9454;53.516;10.478;2022-11-25T17:45:58;10.38;;;5.25;;
18649;SDS011;9454;53.516;10.478;2022-11-25T17:49:00;15.07;;;6.65;;
18649;SDS011;9454;53.516;10.478;2022-11-25T17:52:05;10.68;;;6.25;;
18649;SDS011;9454;53.516;10.478;2022-11-25T17:55:07;15.48;;;6.40;;
18649;SDS011;9454;53.516;10.478;2022-11-25T17:58:10;14.13;;;6.22;;
18649;SDS011;9454;53.516;10.478;2022-11-25T18:01:14;11.77;;;5.68;;
18649;SDS011;9454;53.516;10.478;2022-11-25T18:04:19;13.20;;;7.13;;
18649;SDS011;9454;53.516;10.478;2022-11-25T18:07:23;16.88;;;6.35;;
18649;SDS011;9454;53.516;10.478;2022-11-25T18:10:27;19.98;;;7.40;;
18649;SDS011;9454;53.516;10.478;2022-11-25T18:13:30;19.30;;;8.15;;
18649;SDS011;9454;53.516;10.478;2022-11-25T18:16:35;9.32;;;5.72;;
18649;SDS011;9454;53.516;10.478;2022-11-25T18:19:37;11.07;;;6.57;;
18649;SDS011;9454;53.516;10.478;2022-11-25T18:22:42;11.50;;;6.35;;
18649;SDS011;9454;53.516;10.478;2022-11-25T18:25:49;15.23;;;6.90;;
18649;SDS011;9454;53.516;10.478;2022-11-25T18:28:53;15.38;;;7.07;;
18649;SDS011;9454;53.516;10.478;2022-11-25T18:31:56;11.75;;;6.43;;
18649;SDS011;9454;53.516;10.478;2022-11-25T18:35:00;16.17;;;7.40;;
18649;SDS011;9454;53.516;10.478;2022-11-25T18:38:04;11.57;;;7.15;;
18649;SDS011;9454;53.516;10.478;2022-11-25T18:41:08;13.80;;;6.70;;
18649;SDS011;9454;53.516;10.478;2022-11-25T18:44:17;12.68;;;6.47;;
18649;SDS011;9454;53.516;10.478;2022-11-25T18:47:26;17.73;;;8.32;;
18649;SDS011;9454;53.516;10.478;2022-11-25T18:50:29;19.85;;;8.13;;
18649;SDS011;9454;53.516;10.478;2022-11-25T18:53:33;13.98;;;7.88;;